Time;durP1;ratioP1;P1;durP2;ratioP2;P2;SDS_P1;SDS_P2;PMS_P1;PMS_P2;Temp;Humidity;BMP_temperature;BMP_pressure;BME280_temperature;BME280_humidity;BME280_pressure;Samples;Min_cycle;Max_cycle;Signal;HPM_P1;HPM_P2
2022/04/07 00:00:22;;;;;;;3.17;1.67;;;;;;;;;;5043931;28;20025;-51
2022/04/07 00:02:48;;;;;;;3.47;1.50;;;;;;;;;;5044102;28;20033;-49
2022/04/07 00:05:14;;;;;;;9.60;2.05;;;;;;;;;;5049910;28;20449;-49
2022/04/07 00:07:40;;;;;;;2.10;1.50;;;;;;;;;;5046880;28;20543;-53
2022/04/07 00:10:06;;;;;;;2.47;1.67;;;;;;;;;;5040616;28;20025;-48
2022/04/07 00:12:33;;;;;;;5.13;1.48;;;;;;;;;;5045159;28;20104;-53
2022/04/07 00:15:00;;;;;;;6.13;1.85;;;;;;;;;;5046340;28;20021;-51
2022/04/07 00:17:26;;;;;;;4.18;1.73;;;;;;;;;;5040109;28;20034;-53
2022/04/07 00:19:52;;;;;;;3.92;1.75;;;;;;;;;;5038972;28;20095;-50
2022/04/07 00:22:18;;;;;;;5.80;2.40;;;;;;;;;;5040101;28;20029;-49
2022/04/07 00:24:44;;;;;;;5.10;2.05;;;;;;;;;;5040395;28;20017;-54
2022/04/07 00:27:10;;;;;;;4.72;1.88;;;;;;;;;;5046299;28;20684;-49
2022/04/07 00:29:36;;;;;;;5.03;1.80;;;;;;;;;;5041170;28;20036;-48
2022/04/07 00:32:05;;;;;;;3.08;1.75;;;;;;;;;;5043060;28;20038;-49
2022/04/07 00:34:32;;;;;;;5.15;2.20;;;;;;;;;;5044041;28;20060;-48
2022/04/07 00:36:58;;;;;;;2.55;1.83;;;;;;;;;;5045396;28;20029;-48
2022/04/07 00:39:24;;;;;;;3.03;1.70;;;;;;;;;;5044183;28;20140;-48
2022/04/07 00:41:50;;;;;;;2.95;1.67;;;;;;;;;;5041935;28;20086;-48
2022/04/07 00:44:16;;;;;;;8.50;2.10;;;;;;;;;;5049112;28;20030;-49
2022/04/07 00:46:42;;;;;;;3.65;2.20;;;;;;;;;;5034751;28;20028;-50
2022/04/07 00:49:09;;;;;;;2.08;1.55;;;;;;;;;;5049146;28;20408;-51
2022/04/07 00:51:36;;;;;;;3.97;1.77;;;;;;;;;;5042180;28;20033;-51
2022/04/07 00:54:02;;;;;;;5.18;1.80;;;;;;;;;;5038949;28;20442;-50
2022/04/07 00:56:28;;;;;;;4.90;1.63;;;;;;;;;;5041996;28;20389;-50
2022/04/07 00:58:54;;;;;;;5.18;1.80;;;;;;;;;;5044804;28;20079;-48
2022/04/07 01:01:22;;;;;;;3.85;1.80;;;;;;;;;;5040495;28;20052;-53
2022/04/07 01:03:50;;;;;;;5.05;1.92;;;;;;;;;;5047732;28;20072;-48
2022/04/07 01:06:16;;;;;;;4.85;2.05;;;;;;;;;;5047067;28;20126;-49
2022/04/07 01:08:42;;;;;;;3.65;1.88;;;;;;;;;;5042347;28;20039;-48
2022/04/07 01:11:08;;;;;;;8.02;2.28;;;;;;;;;;5044412;28;20112;-48
2022/04/07 01:13:49;;;;;;;2.95;1.88;;;;;;;;;;5047962;28;20108;-48
2022/04/07 01:16:16;;;;;;;3.42;1.95;;;;;;;;;;5043417;28;20029;-52
2022/04/07 01:18:44;;;;;;;4.05;2.25;;;;;;;;;;5034550;28;20040;-48
2022/04/07 01:21:11;;;;;;;3.83;2.42;;;;;;;;;;5043490;28;20025;-48
2022/04/07 01:23:38;;;;;;;3.72;2.10;;;;;;;;;;5036322;28;20112;-50
2022/04/07 01:26:05;;;;;;;2.95;1.65;;;;;;;;;;5039286;28;20402;-49
2022/04/07 01:28:31;;;;;;;6.55;2.22;;;;;;;;;;5032459;28;20037;-51
2022/04/07 01:30:57;;;;;;;8.32;2.65;;;;;;;;;;5038434;28;20033;-50
2022/04/07 01:33:24;;;;;;;3.90;1.98;;;;;;;;;;5041789;28;20033;-53
2022/04/07 01:35:50;;;;;;;4.35;2.28;;;;;;;;;;5037165;28;20025;-49
2022/04/07 01:38:16;;;;;;;5.88;2.08;;;;;;;;;;5039601;28;20405;-54
2022/04/07 01:40:43;;;;;;;3.40;2.22;;;;;;;;;;5040269;28;20441;-48
2022/04/07 01:43:10;;;;;;;4.68;2.40;;;;;;;;;;5037085;28;20061;-48
2022/04/07 01:45:36;;;;;;;3.65;2.15;;;;;;;;;;5035930;28;20097;-49
2022/04/07 01:48:03;;;;;;;3.58;2.40;;;;;;;;;;5043067;28;20029;-48
2022/04/07 01:50:30;;;;;;;4.65;2.90;;;;;;;;;;5046791;28;20361;-49
2022/04/07 01:52:57;;;;;;;2.53;1.90;;;;;;;;;;5040068;28;20386;-48
2022/04/07 01:55:25;;;;;;;4.72;3.10;;;;;;;;;;5042963;28;20065;-49
2022/04/07 01:57:51;;;;;;;4.95;2.80;;;;;;;;;;5042514;28;20032;-48
2022/04/07 02:00:17;;;;;;;8.23;3.67;;;;;;;;;;5039627;28;20029;-48
2022/04/07 02:02:45;;;;;;;6.97;3.03;;;;;;;;;;5038945;28;20105;-51
2022/04/07 02:05:11;;;;;;;6.00;3.30;;;;;;;;;;5043838;28;20052;-49
2022/04/07 02:07:39;;;;;;;6.75;3.05;;;;;;;;;;5043033;28;20037;-51
2022/04/07 02:10:05;;;;;;;5.78;2.80;;;;;;;;;;5047124;28;20079;-51
2022/04/07 02:12:35;;;;;;;3.80;2.70;;;;;;;;;;5040133;28;20068;-48
2022/04/07 02:15:01;;;;;;;6.57;2.90;;;;;;;;;;5045341;28;20354;-49
2022/04/07 02:17:27;;;;;;;6.28;3.10;;;;;;;;;;5040033;28;20037;-53
2022/04/07 02:19:55;;;;;;;4.32;3.00;;;;;;;;;;5039497;28;20466;-51
2022/04/07 02:22:21;;;;;;;6.70;3.53;;;;;;;;;;5043681;28;20025;-49
2022/04/07 02:24:48;;;;;;;4.40;2.75;;;;;;;;;;5036116;28;20029;-48
2022/04/07 02:27:14;;;;;;;6.63;3.58;;;;;;;;;;5038227;28;20030;-49
2022/04/07 02:29:42;;;;;;;6.90;3.72;;;;;;;;;;5037264;28;20034;-48
2022/04/07 02:32:08;;;;;;;6.65;3.67;;;;;;;;;;5038108;28;20036;-48
2022/04/07 02:34:34;;;;;;;10.10;3.13;;;;;;;;;;5042706;28;20037;-48
2022/04/07 02:37:00;;;;;;;7.20;3.78;;;;;;;;;;5041138;28;20037;-49
2022/04/07 02:39:26;;;;;;;6.55;3.60;;;;;;;;;;5041755;28;20017;-52
2022/04/07 02:41:53;;;;;;;6.57;3.30;;;;;;;;;;5045377;28;20021;-53
2022/04/07 02:44:19;;;;;;;7.38;3.78;;;;;;;;;;5041502;28;20025;-49
2022/04/07 02:46:45;;;;;;;7.55;3.33;;;;;;;;;;5039667;28;20531;-51
2022/04/07 02:49:11;;;;;;;5.82;3.50;;;;;;;;;;5044125;28;20119;-49
2022/04/07 02:51:37;;;;;;;9.18;3.72;;;;;;;;;;5038429;28;20501;-52
2022/04/07 02:54:03;;;;;;;9.00;3.58;;;;;;;;;;5040012;28;20030;-48
2022/04/07 02:56:29;;;;;;;6.00;3.63;;;;;;;;;;5046569;28;20084;-48
2022/04/07 02:58:56;;;;;;;7.50;4.10;;;;;;;;;;5040664;28;20482;-50
2022/04/07 03:01:22;;;;;;;7.07;4.10;;;;;;;;;;5038437;28;20374;-48
2022/04/07 03:03:49;;;;;;;5.32;3.13;;;;;;;;;;5043229;28;20029;-50
2022/04/07 03:06:15;;;;;;;8.68;4.40;;;;;;;;;;5053674;28;20369;-49
2022/04/07 03:08:41;;;;;;;6.07;3.40;;;;;;;;;;5043572;28;20535;-49
2022/04/07 03:11:08;;;;;;;7.25;3.67;;;;;;;;;;5041692;28;20037;-49
2022/04/07 03:13:36;;;;;;;9.43;3.53;;;;;;;;;;5048232;28;20033;-51
2022/04/07 03:16:02;;;;;;;6.35;3.45;;;;;;;;;;5044643;28;20065;-51
2022/04/07 03:18:28;;;;;;;4.72;2.80;;;;;;;;;;5036543;28;20055;-51
2022/04/07 03:20:54;;;;;;;7.40;3.72;;;;;;;;;;5039050;28;20438;-49
2022/04/07 03:23:20;;;;;;;7.68;3.42;;;;;;;;;;5040273;28;20026;-53
2022/04/07 03:25:47;;;;;;;7.75;3.08;;;;;;;;;;5044334;28;20103;-50
2022/04/07 03:28:13;;;;;;;8.23;4.15;;;;;;;;;;5039081;28;20039;-48
2022/04/07 03:30:39;;;;;;;5.82;3.65;;;;;;;;;;5042708;28;20021;-48
2022/04/07 03:33:06;;;;;;;4.90;3.13;;;;;;;;;;5043606;28;20029;-48
2022/04/07 03:35:32;;;;;;;6.53;3.40;;;;;;;;;;5039327;28;20040;-49
2022/04/07 03:37:58;;;;;;;6.88;3.45;;;;;;;;;;5042659;28;20084;-50
2022/04/07 03:40:25;;;;;;;5.30;3.08;;;;;;;;;;5047448;28;20479;-49
2022/04/07 03:42:51;;;;;;;6.93;3.38;;;;;;;;;;5048958;28;20029;-51
2022/04/07 03:45:17;;;;;;;4.85;3.00;;;;;;;;;;5041706;28;20496;-48
2022/04/07 03:47:43;;;;;;;5.43;3.22;;;;;;;;;;5043639;28;20545;-50
2022/04/07 03:50:09;;;;;;;7.80;2.97;;;;;;;;;;5049833;28;20037;-50
2022/04/07 03:52:36;;;;;;;5.78;3.20;;;;;;;;;;5043632;28;20055;-51
2022/04/07 03:55:02;;;;;;;6.65;3.50;;;;;;;;;;5039550;28;20590;-50
2022/04/07 03:57:29;;;;;;;6.20;3.35;;;;;;;;;;5043127;28;20438;-53
2022/04/07 03:59:55;;;;;;;3.65;2.88;;;;;;;;;;5043797;28;20048;-53
2022/04/07 04:02:21;;;;;;;4.38;2.92;;;;;;;;;;5038680;28;20515;-53
2022/04/07 04:04:47;;;;;;;8.32;3.72;;;;;;;;;;5048438;28;20029;-49
2022/04/07 04:07:13;;;;;;;6.78;3.13;;;;;;;;;;5043230;28;20029;-49
2022/04/07 04:09:39;;;;;;;7.15;3.17;;;;;;;;;;5049483;28;20151;-48
2022/04/07 04:12:05;;;;;;;8.80;3.47;;;;;;;;;;5039727;28;20103;-48
2022/04/07 04:14:31;;;;;;;6.25;3.10;;;;;;;;;;5040510;28;20806;-48
2022/04/07 04:16:58;;;;;;;4.80;3.40;;;;;;;;;;5037960;28;20028;-48
2022/04/07 04:19:24;;;;;;;5.03;3.00;;;;;;;;;;5045954;28;20039;-48
2022/04/07 04:21:51;;;;;;;5.25;3.10;;;;;;;;;;5041170;28;20022;-50
2022/04/07 04:24:17;;;;;;;5.78;2.78;;;;;;;;;;5039226;28;20412;-52
2022/04/07 04:26:43;;;;;;;6.63;3.05;;;;;;;;;;5034516;28;20044;-52
2022/04/07 04:29:09;;;;;;;5.13;3.00;;;;;;;;;;5038210;28;20415;-50
2022/04/07 04:31:34;;;;;;;11.75;3.00;;;;;;;;;;5036053;28;20108;-51
2022/04/07 04:34:00;;;;;;;5.72;2.80;;;;;;;;;;5035919;28;20029;-51
2022/04/07 04:36:28;;;;;;;7.03;3.08;;;;;;;;;;5035562;28;20029;-51
2022/04/07 04:38:54;;;;;;;5.93;2.90;;;;;;;;;;5041059;28;20036;-48
2022/04/07 04:41:20;;;;;;;5.50;2.83;;;;;;;;;;5034259;28;20033;-49
2022/04/07 04:43:46;;;;;;;4.00;2.30;;;;;;;;;;5036682;28;20041;-50
2022/04/07 04:46:13;;;;;;;5.38;2.53;;;;;;;;;;5042046;28;20041;-48
2022/04/07 04:48:39;;;;;;;3.72;2.10;;;;;;;;;;5043775;28;20033;-48
2022/04/07 04:51:05;;;;;;;3.97;2.50;;;;;;;;;;5042022;28;20489;-49
2022/04/07 04:53:31;;;;;;;3.97;2.70;;;;;;;;;;5044516;28;20086;-50
2022/04/07 04:55:57;;;;;;;4.82;2.55;;;;;;;;;;5044399;28;20045;-52
2022/04/07 04:58:23;;;;;;;3.75;2.58;;;;;;;;;;5044224;28;20048;-48
2022/04/07 05:00:50;;;;;;;3.40;2.33;;;;;;;;;;5043350;28;20030;-51
2022/04/07 05:03:16;;;;;;;5.03;2.75;;;;;;;;;;5043591;28;20372;-50
2022/04/07 05:05:42;;;;;;;3.88;2.47;;;;;;;;;;5040294;28;20051;-53
2022/04/07 05:08:08;;;;;;;5.72;2.65;;;;;;;;;;5042824;28;20025;-54
2022/04/07 05:10:36;;;;;;;6.88;3.00;;;;;;;;;;5047214;28;20045;-48
2022/04/07 05:13:02;;;;;;;3.67;2.28;;;;;;;;;;5038023;28;20017;-51
2022/04/07 05:15:28;;;;;;;3.92;2.58;;;;;;;;;;5036811;28;20086;-49
2022/04/07 05:17:54;;;;;;;3.58;2.35;;;;;;;;;;5037072;28;20021;-53
2022/04/07 05:20:21;;;;;;;9.73;3.20;;;;;;;;;;5035203;28;20071;-53
2022/04/07 05:22:47;;;;;;;4.80;2.70;;;;;;;;;;5044993;28;20114;-49
2022/04/07 05:25:13;;;;;;;4.47;2.72;;;;;;;;;;5039845;28;20478;-49
2022/04/07 05:27:40;;;;;;;5.47;2.85;;;;;;;;;;5039711;28;20100;-48
2022/04/07 05:30:06;;;;;;;5.97;2.38;;;;;;;;;;5037560;28;20040;-48
2022/04/07 05:32:32;;;;;;;4.10;2.55;;;;;;;;;;5039941;28;20032;-52
2022/04/07 05:34:58;;;;;;;3.50;2.05;;;;;;;;;;5034435;28;20393;-53
2022/04/07 05:37:24;;;;;;;4.85;2.53;;;;;;;;;;5034815;28;20033;-51
2022/04/07 05:39:54;;;;;;;5.75;2.47;;;;;;;;;;5041515;28;20492;-53
2022/04/07 05:42:20;;;;;;;5.65;2.35;;;;;;;;;;5043087;28;20029;-49
2022/04/07 05:44:46;;;;;;;4.65;2.28;;;;;;;;;;5036228;28;20029;-49
2022/04/07 05:47:12;;;;;;;4.28;2.05;;;;;;;;;;5043687;28;20031;-49
2022/04/07 05:49:38;;;;;;;3.85;2.08;;;;;;;;;;5038277;28;20064;-49
2022/04/07 05:52:04;;;;;;;3.80;1.88;;;;;;;;;;5035343;28;20057;-49
2022/04/07 05:54:34;;;;;;;3.00;2.03;;;;;;;;;;5033037;28;20021;-48
2022/04/07 05:57:00;;;;;;;3.80;1.92;;;;;;;;;;5043079;28;20053;-48
2022/04/07 05:59:26;;;;;;;2.85;1.80;;;;;;;;;;5034920;28;20462;-48
2022/04/07 06:01:52;;;;;;;10.38;1.95;;;;;;;;;;5041410;28;20025;-53
2022/04/07 06:04:18;;;;;;;4.32;2.53;;;;;;;;;;5035813;28;20031;-48
2022/04/07 06:06:44;;;;;;;4.53;2.13;;;;;;;;;;5050371;28;20025;-51
2022/04/07 06:09:10;;;;;;;3.20;1.70;;;;;;;;;;5038342;28;20091;-54
2022/04/07 06:11:36;;;;;;;4.03;2.28;;;;;;;;;;5043184;28;20037;-53
2022/04/07 06:14:04;;;;;;;2.67;1.83;;;;;;;;;;5045848;28;20032;-50
2022/04/07 06:16:30;;;;;;;2.45;1.63;;;;;;;;;;5044205;28;20033;-51
2022/04/07 06:18:56;;;;;;;3.63;1.63;;;;;;;;;;5038617;28;20112;-50
2022/04/07 06:21:25;;;;;;;3.00;1.58;;;;;;;;;;5040535;28;20096;-49
2022/04/07 06:23:51;;;;;;;2.30;1.30;;;;;;;;;;5036621;28;20028;-51
2022/04/07 06:26:20;;;;;;;4.28;1.30;;;;;;;;;;5045664;28;20064;-51
2022/04/07 06:28:46;;;;;;;2.47;1.23;;;;;;;;;;5039442;28;20056;-48
2022/04/07 06:31:12;;;;;;;3.15;1.42;;;;;;;;;;5046015;28;20466;-52
2022/04/07 06:33:38;;;;;;;3.05;1.45;;;;;;;;;;5043408;28;20022;-48
2022/04/07 06:36:05;;;;;;;1.77;1.40;;;;;;;;;;5037493;28;20489;-49
2022/04/07 06:38:31;;;;;;;5.25;1.10;;;;;;;;;;5046752;28;20033;-49
2022/04/07 06:40:58;;;;;;;2.38;1.20;;;;;;;;;;5042480;28;20040;-49
2022/04/07 06:43:24;;;;;;;3.05;1.40;;;;;;;;;;5039402;28;20112;-52
2022/04/07 06:45:50;;;;;;;2.53;1.25;;;;;;;;;;5035834;28;20029;-50
2022/04/07 06:48:16;;;;;;;2.10;1.35;;;;;;;;;;5043254;28;20030;-54
2022/04/07 06:50:44;;;;;;;2.88;1.75;;;;;;;;;;5046543;28;20099;-53
2022/04/07 06:53:11;;;;;;;3.65;1.33;;;;;;;;;;5044057;28;20029;-48
2022/04/07 06:55:37;;;;;;;2.00;1.50;;;;;;;;;;5046190;28;20813;-49
2022/04/07 06:58:06;;;;;;;2.10;1.45;;;;;;;;;;5044802;28;20027;-48
2022/04/07 07:00:33;;;;;;;3.67;1.67;;;;;;;;;;5042334;28;20037;-48
2022/04/07 07:03:00;;;;;;;4.35;1.63;;;;;;;;;;5046156;28;20029;-49
2022/04/07 07:05:28;;;;;;;3.08;1.70;;;;;;;;;;5038944;28;20064;-48
2022/04/07 07:07:54;;;;;;;2.60;1.30;;;;;;;;;;5047880;28;20036;-49
2022/04/07 07:10:20;;;;;;;2.08;1.52;;;;;;;;;;5048241;28;20469;-48
2022/04/07 07:12:47;;;;;;;2.33;1.45;;;;;;;;;;5045104;28;20033;-48
2022/04/07 07:15:13;;;;;;;5.45;1.50;;;;;;;;;;5042380;28;20033;-49
2022/04/07 07:17:40;;;;;;;1.92;1.45;;;;;;;;;;5036262;28;20037;-50
2022/04/07 07:20:12;;;;;;;2.25;1.50;;;;;;;;;;5047181;28;20111;-52
2022/04/07 07:22:39;;;;;;;1.47;1.20;;;;;;;;;;5043731;28;20029;-54
2022/04/07 07:25:05;;;;;;;1.73;1.20;;;;;;;;;;5045985;28;20276;-54
2022/04/07 07:27:39;;;;;;;1.42;1.10;;;;;;;;;;5041299;28;20427;-53
2022/04/07 07:30:08;;;;;;;3.75;1.02;;;;;;;;;;5034236;28;20044;-49
2022/04/07 07:32:34;;;;;;;1.80;1.00;;;;;;;;;;5051083;28;20075;-49
2022/04/07 07:35:00;;;;;;;2.85;1.40;;;;;;;;;;5040878;28;20029;-51
2022/04/07 07:37:26;;;;;;;1.83;1.13;;;;;;;;;;5042412;28;20649;-54
2022/04/07 07:39:52;;;;;;;2.90;1.10;;;;;;;;;;5041106;28;20029;-48
2022/04/07 07:42:17;;;;;;;2.97;0.80;;;;;;;;;;5041803;28;20405;-50
2022/04/07 07:44:43;;;;;;;2.35;1.15;;;;;;;;;;5040376;28;20017;-51
2022/04/07 07:47:09;;;;;;;1.30;0.70;;;;;;;;;;5044217;28;20108;-51
2022/04/07 07:49:35;;;;;;;0.60;0.47;;;;;;;;;;5043503;28;20040;-49
2022/04/07 07:52:01;;;;;;;2.58;1.05;;;;;;;;;;5041814;28;20452;-50
2022/04/07 07:54:27;;;;;;;2.20;0.80;;;;;;;;;;5037429;28;20155;-50
2022/04/07 07:56:54;;;;;;;1.17;0.68;;;;;;;;;;5046014;28;20068;-54
2022/04/07 07:59:20;;;;;;;8.15;1.15;;;;;;;;;;5038182;28;20117;-50
2022/04/07 08:01:48;;;;;;;1.15;0.77;;;;;;;;;;5046676;28;20016;-55
2022/04/07 08:04:14;;;;;;;1.20;0.70;;;;;;;;;;5042019;28;20064;-51
2022/04/07 08:06:40;;;;;;;1.50;0.80;;;;;;;;;;5047962;28;20030;-53
2022/04/07 08:09:08;;;;;;;0.95;0.55;;;;;;;;;;5037730;28;20496;-49
2022/04/07 08:11:34;;;;;;;1.20;0.50;;;;;;;;;;5044520;28;20596;-50
2022/04/07 08:14:00;;;;;;;1.08;0.70;;;;;;;;;;5045331;28;20049;-53
2022/04/07 08:16:29;;;;;;;2.15;0.80;;;;;;;;;;5038241;28;20124;-51
2022/04/07 08:18:55;;;;;;;2.00;1.05;;;;;;;;;;5038361;28;20458;-49
2022/04/07 08:21:21;;;;;;;2.15;0.82;;;;;;;;;;5047607;28;20033;-51
2022/04/07 08:23:47;;;;;;;0.80;0.60;;;;;;;;;;5035400;28;20067;-49
2022/04/07 08:26:12;;;;;;;1.90;0.70;;;;;;;;;;5045349;28;21805;-49
2022/04/07 08:28:40;;;;;;;1.77;0.75;;;;;;;;;;5036323;28;20029;-49
2022/04/07 08:31:06;;;;;;;0.88;0.65;;;;;;;;;;5040811;28;20509;-51
2022/04/07 08:33:31;;;;;;;0.80;0.55;;;;;;;;;;5041232;28;20040;-51
2022/04/07 08:35:57;;;;;;;1.02;0.65;;;;;;;;;;5044095;28;20115;-51
2022/04/07 08:38:23;;;;;;;1.20;0.47;;;;;;;;;;5035731;28;20025;-53
2022/04/07 08:40:53;;;;;;;1.77;0.68;;;;;;;;;;5040808;28;20572;-51
2022/04/07 08:43:19;;;;;;;0.43;0.40;;;;;;;;;;5038846;28;20144;-50
2022/04/07 08:45:45;;;;;;;3.38;0.60;;;;;;;;;;5044421;28;20618;-49
2022/04/07 08:48:12;;;;;;;0.75;0.50;;;;;;;;;;5045259;28;20029;-49
2022/04/07 08:50:42;;;;;;;0.98;0.55;;;;;;;;;;5039416;28;20067;-49
2022/04/07 08:53:08;;;;;;;0.30;0.30;;;;;;;;;;5036722;28;20025;-49
2022/04/07 08:55:34;;;;;;;2.22;0.47;;;;;;;;;;5041232;28;20049;-48
2022/04/07 08:58:01;;;;;;;0.70;0.45;;;;;;;;;;5039534;28;20083;-50
2022/04/07 09:00:27;;;;;;;1.05;0.40;;;;;;;;;;5041577;28;20160;-49
2022/04/07 09:02:54;;;;;;;0.40;0.30;;;;;;;;;;5042000;28;20024;-48
2022/04/07 09:05:23;;;;;;;0.30;0.30;;;;;;;;;;5047904;28;20039;-48
2022/04/07 09:07:50;;;;;;;0.32;0.30;;;;;;;;;;5044569;28;20105;-48
2022/04/07 09:10:18;;;;;;;0.47;0.40;;;;;;;;;;5044034;28;20548;-51
2022/04/07 09:12:44;;;;;;;0.70;0.50;;;;;;;;;;5045220;28;20031;-49
2022/04/07 09:15:12;;;;;;;1.13;0.40;;;;;;;;;;5039956;28;20029;-49
2022/04/07 09:17:55;;;;;;;0.45;0.40;;;;;;;;;;5034952;28;20032;-49
2022/04/07 09:20:21;;;;;;;2.20;0.40;;;;;;;;;;5041225;28;20113;-48
2022/04/07 09:22:57;;;;;;;0.43;0.40;;;;;;;;;;5034460;28;20075;-53
2022/04/07 09:25:23;;;;;;;1.23;0.60;;;;;;;;;;5039177;28;20485;-53
2022/04/07 09:27:49;;;;;;;1.42;0.40;;;;;;;;;;5041945;28;20084;-53
2022/04/07 09:30:15;;;;;;;0.30;0.20;;;;;;;;;;5039998;28;20051;-52
2022/04/07 09:32:45;;;;;;;0.32;0.32;;;;;;;;;;5045180;28;20029;-49
2022/04/07 09:35:12;;;;;;;0.40;0.40;;;;;;;;;;5037899;28;20037;-47
2022/04/07 09:37:39;;;;;;;1.45;0.30;;;;;;;;;;5043345;28;20060;-50
2022/04/07 09:40:09;;;;;;;0.50;0.38;;;;;;;;;;5039423;28;20040;-48
2022/04/07 09:42:35;;;;;;;2.22;0.50;;;;;;;;;;5037586;28;20049;-49
2022/04/07 09:45:02;;;;;;;0.25;0.25;;;;;;;;;;5039206;28;20026;-48
2022/04/07 09:47:39;;;;;;;0.25;0.25;;;;;;;;;;5040528;28;20026;-48
2022/04/07 09:50:06;;;;;;;0.70;0.35;;;;;;;;;;5037881;28;20041;-51
2022/04/07 09:52:32;;;;;;;0.30;0.30;;;;;;;;;;5041779;28;20116;-49
2022/04/07 09:55:02;;;;;;;0.47;0.40;;;;;;;;;;5039652;28;20040;-49
2022/04/07 09:57:28;;;;;;;0.85;0.30;;;;;;;;;;5038300;28;20074;-47
2022/04/07 09:59:54;;;;;;;2.40;0.75;;;;;;;;;;5034277;28;20338;-49
2022/04/07 10:02:20;;;;;;;2.00;0.45;;;;;;;;;;5035678;28;20060;-49
2022/04/07 10:04:47;;;;;;;1.70;0.32;;;;;;;;;;5040332;28;20060;-47
2022/04/07 10:07:13;;;;;;;0.25;0.25;;;;;;;;;;5045881;28;20035;-50
2022/04/07 10:09:41;;;;;;;0.40;0.30;;;;;;;;;;5037580;28;20029;-52
2022/04/07 10:12:08;;;;;;;0.60;0.30;;;;;;;;;;5043114;28;20055;-49
2022/04/07 10:14:34;;;;;;;0.40;0.30;;;;;;;;;;5040222;28;20437;-51
2022/04/07 10:17:00;;;;;;;0.20;0.20;;;;;;;;;;5039504;28;20485;-51
2022/04/07 10:19:39;;;;;;;0.85;0.32;;;;;;;;;;5039104;28;20033;-51
2022/04/07 10:22:13;;;;;;;1.13;0.20;;;;;;;;;;5040885;28;20046;-53
2022/04/07 10:24:43;;;;;;;0.40;0.30;;;;;;;;;;5038414;28;20029;-51
2022/04/07 10:27:10;;;;;;;0.73;0.40;;;;;;;;;;5036578;28;20052;-47
2022/04/07 10:29:38;;;;;;;0.52;0.50;;;;;;;;;;5044737;28;20087;-52
2022/04/07 10:32:09;;;;;;;0.20;0.20;;;;;;;;;;5041120;28;20084;-47
2022/04/07 10:34:35;;;;;;;0.45;0.30;;;;;;;;;;5042668;28;20104;-48
2022/04/07 10:37:02;;;;;;;0.85;0.30;;;;;;;;;;5045680;28;20035;-47
2022/04/07 10:39:32;;;;;;;2.17;0.30;;;;;;;;;;5042833;28;20400;-47
2022/04/07 10:41:58;;;;;;;0.57;0.35;;;;;;;;;;5042585;28;20025;-50
2022/04/07 10:44:25;;;;;;;1.15;0.40;;;;;;;;;;5037230;28;20424;-49
2022/04/07 10:47:08;;;;;;;0.95;0.45;;;;;;;;;;5039345;28;20725;-47
2022/04/07 10:49:34;;;;;;;0.98;0.63;;;;;;;;;;5036659;28;20040;-48
2022/04/07 10:52:06;;;;;;;2.20;0.50;;;;;;;;;;5042545;28;20033;-48
2022/04/07 10:54:33;;;;;;;0.63;0.40;;;;;;;;;;5038442;28;20041;-47
2022/04/07 10:57:01;;;;;;;0.90;0.60;;;;;;;;;;5037938;28;20054;-47
2022/04/07 10:59:27;;;;;;;0.43;0.30;;;;;;;;;;5036130;28;20036;-48
2022/04/07 11:01:56;;;;;;;0.77;0.40;;;;;;;;;;5035538;28;20036;-48
2022/04/07 11:04:22;;;;;;;0.98;0.45;;;;;;;;;;5050370;28;20085;-50
2022/04/07 11:07:16;;;;;;;1.73;0.52;;;;;;;;;;5049612;28;20136;-48
2022/04/07 11:09:43;;;;;;;0.93;0.50;;;;;;;;;;5040291;28;20409;-50
2022/04/07 11:12:09;;;;;;;2.15;0.45;;;;;;;;;;5037369;28;20029;-51
2022/04/07 11:14:35;;;;;;;0.70;0.40;;;;;;;;;;5033194;28;20587;-53
2022/04/07 11:17:02;;;;;;;0.77;0.35;;;;;;;;;;5041096;28;20041;-49
2022/04/07 11:19:38;;;;;;;0.55;0.30;;;;;;;;;;5042767;28;20035;-50
2022/04/07 11:22:09;;;;;;;0.70;0.47;;;;;;;;;;5040907;28;20025;-51
2022/04/07 11:24:42;;;;;;;0.70;0.40;;;;;;;;;;5034953;28;20029;-53
2022/04/07 11:27:27;;;;;;;0.40;0.30;;;;;;;;;;5039577;28;20534;-48
2022/04/07 11:30:03;;;;;;;0.80;0.40;;;;;;;;;;5037516;28;20033;-48
2022/04/07 11:32:29;;;;;;;1.35;0.50;;;;;;;;;;5046035;28;20366;-51
2022/04/07 11:34:58;;;;;;;1.15;0.40;;;;;;;;;;5036932;28;20029;-51
2022/04/07 11:37:24;;;;;;;1.95;0.40;;;;;;;;;;5038110;28;20493;-49
2022/04/07 11:39:53;;;;;;;1.30;0.45;;;;;;;;;;5035488;28;20458;-48
2022/04/07 11:42:21;;;;;;;3.65;0.50;;;;;;;;;;5037786;28;20058;-49
2022/04/07 11:44:48;;;;;;;0.40;0.30;;;;;;;;;;5038682;28;20026;-49
2022/04/07 11:47:23;;;;;;;0.40;0.30;;;;;;;;;;5046930;28;20029;-49
2022/04/07 11:49:49;;;;;;;0.43;0.43;;;;;;;;;;5043262;28;20056;-50
2022/04/07 11:52:16;;;;;;;0.65;0.47;;;;;;;;;;5044691;28;20036;-48
2022/04/07 11:54:42;;;;;;;1.35;0.40;;;;;;;;;;5042505;28;20105;-48
2022/04/07 11:57:10;;;;;;;4.40;0.88;;;;;;;;;;5045585;28;20140;-50
2022/04/07 11:59:37;;;;;;;0.63;0.50;;;;;;;;;;5035648;28;20470;-53
2022/04/07 12:02:03;;;;;;;0.28;0.28;;;;;;;;;;5037459;28;20482;-50
2022/04/07 12:04:34;;;;;;;0.50;0.32;;;;;;;;;;5041224;28;20029;-50
2022/04/07 12:07:01;;;;;;;4.75;0.40;;;;;;;;;;5035256;28;20078;-50
2022/04/07 12:09:27;;;;;;;0.65;0.43;;;;;;;;;;5040020;28;20754;-52
2022/04/07 12:11:54;;;;;;;0.45;0.38;;;;;;;;;;5045293;28;20025;-53
2022/04/07 12:14:24;;;;;;;0.52;0.45;;;;;;;;;;5035017;28;20038;-53
2022/04/07 12:16:50;;;;;;;0.77;0.52;;;;;;;;;;5039325;28;20035;-53
2022/04/07 12:19:17;;;;;;;0.70;0.50;;;;;;;;;;5040019;28;20121;-55
2022/04/07 12:21:56;;;;;;;1.38;0.40;;;;;;;;;;5039545;28;20025;-48
2022/04/07 12:24:23;;;;;;;0.80;0.40;;;;;;;;;;5040550;28;20045;-50
2022/04/07 12:26:49;;;;;;;1.15;0.40;;;;;;;;;;5038216;28;20583;-52
2022/04/07 12:29:17;;;;;;;0.65;0.38;;;;;;;;;;5043063;28;20075;-47
2022/04/07 12:31:43;;;;;;;2.58;0.38;;;;;;;;;;5046124;28;20025;-49
2022/04/07 12:34:12;;;;;;;1.45;0.70;;;;;;;;;;5047653;28;20079;-51
2022/04/07 12:36:38;;;;;;;0.22;0.22;;;;;;;;;;5038921;28;20704;-47
2022/04/07 12:39:15;;;;;;;1.00;0.47;;;;;;;;;;5042526;28;20040;-49
2022/04/07 12:41:44;;;;;;;0.60;0.60;;;;;;;;;;5040644;28;20029;-48
2022/04/07 12:44:21;;;;;;;2.30;0.40;;;;;;;;;;5038303;28;20029;-50
2022/04/07 12:46:49;;;;;;;0.82;0.50;;;;;;;;;;5035775;28;20393;-50
2022/04/07 12:49:15;;;;;;;1.02;0.60;;;;;;;;;;5039277;28;20033;-47
2022/04/07 12:51:42;;;;;;;0.30;0.30;;;;;;;;;;5036676;28;20029;-49
2022/04/07 12:54:09;;;;;;;0.22;0.20;;;;;;;;;;5043815;28;20551;-49
2022/04/07 12:56:35;;;;;;;0.20;0.20;;;;;;;;;;5037956;28;20111;-50
2022/04/07 12:59:03;;;;;;;0.30;0.30;;;;;;;;;;5042564;28;20075;-51
2022/04/07 13:01:29;;;;;;;0.43;0.38;;;;;;;;;;5039226;28;20488;-52
2022/04/07 13:03:56;;;;;;;1.85;0.40;;;;;;;;;;5041078;28;20025;-50
2022/04/07 13:06:23;;;;;;;0.30;0.30;;;;;;;;;;5040602;28;20167;-50
2022/04/07 13:08:49;;;;;;;0.20;0.20;;;;;;;;;;5035704;28;20029;-49
2022/04/07 13:11:37;;;;;;;0.77;0.30;;;;;;;;;;5034691;28;20033;-51
2022/04/07 13:14:07;;;;;;;0.40;0.40;;;;;;;;;;5037294;28;20548;-52
2022/04/07 13:16:34;;;;;;;0.32;0.30;;;;;;;;;;5034624;28;20036;-47
2022/04/07 13:19:01;;;;;;;0.22;0.22;;;;;;;;;;5033152;28;20040;-48
2022/04/07 13:21:27;;;;;;;0.20;0.20;;;;;;;;;;5042793;28;20066;-50
2022/04/07 13:23:53;;;;;;;1.38;0.35;;;;;;;;;;5038098;28;20450;-48
2022/04/07 13:26:19;;;;;;;0.65;0.30;;;;;;;;;;5041489;28;20032;-50
2022/04/07 13:28:49;;;;;;;0.57;0.20;;;;;;;;;;5045687;28;20032;-47
2022/04/07 13:31:15;;;;;;;0.35;0.20;;;;;;;;;;5044639;28;20078;-49
2022/04/07 13:33:41;;;;;;;0.40;0.30;;;;;;;;;;5040017;28;20033;-47
2022/04/07 13:36:07;;;;;;;2.70;1.40;;;;;;;;;;5043795;28;20028;-51
2022/04/07 13:38:33;;;;;;;0.25;0.25;;;;;;;;;;5038333;28;20087;-48
2022/04/07 13:41:00;;;;;;;0.25;0.25;;;;;;;;;;5037606;28;20074;-48
2022/04/07 13:43:28;;;;;;;0.47;0.30;;;;;;;;;;5041456;28;20397;-48
2022/04/07 13:45:54;;;;;;;0.40;0.40;;;;;;;;;;5039461;28;20033;-47
2022/04/07 13:48:20;;;;;;;3.05;1.05;;;;;;;;;;5041089;28;20072;-53
2022/04/07 13:50:47;;;;;;;1.77;0.40;;;;;;;;;;5039367;28;20029;-52
2022/04/07 13:53:13;;;;;;;2.25;0.22;;;;;;;;;;5039825;28;20048;-63
2022/04/07 13:55:39;;;;;;;3.25;0.65;;;;;;;;;;5041012;28;20072;-61
2022/04/07 13:58:05;;;;;;;1.13;0.28;;;;;;;;;;5038136;28;20048;-60
2022/04/07 14:00:32;;;;;;;1.02;0.40;;;;;;;;;;5037718;28;20029;-59
2022/04/07 14:02:58;;;;;;;2.20;0.38;;;;;;;;;;5039808;28;20087;-58
2022/04/07 14:05:24;;;;;;;0.38;0.30;;;;;;;;;;5039245;28;20022;-58
2022/04/07 14:07:50;;;;;;;0.50;0.32;;;;;;;;;;5039946;28;20017;-56
2022/04/07 14:10:17;;;;;;;3.72;0.40;;;;;;;;;;5042509;28;20036;-56
2022/04/07 14:12:44;;;;;;;1.38;0.40;;;;;;;;;;5044276;28;20504;-56
2022/04/07 14:15:10;;;;;;;6.20;0.75;;;;;;;;;;5042897;28;20040;-55
2022/04/07 14:17:36;;;;;;;2.67;0.73;;;;;;;;;;5039756;28;20585;-56
2022/04/07 14:20:02;;;;;;;0.63;0.45;;;;;;;;;;5038355;28;20112;-55
2022/04/07 14:22:29;;;;;;;0.40;0.32;;;;;;;;;;5037781;28;20101;-55
2022/04/07 14:24:56;;;;;;;3.70;0.55;;;;;;;;;;5037074;28;20131;-56
2022/04/07 14:27:22;;;;;;;0.40;0.40;;;;;;;;;;5037564;28;20412;-57
2022/04/07 14:29:48;;;;;;;0.35;0.35;;;;;;;;;;5040008;28;20040;-56
2022/04/07 14:32:14;;;;;;;1.27;0.50;;;;;;;;;;5036410;28;20026;-57
2022/04/07 14:34:41;;;;;;;0.88;0.50;;;;;;;;;;5039479;28;20432;-53
2022/04/07 14:37:07;;;;;;;1.10;0.80;;;;;;;;;;5046233;28;20041;-52
2022/04/07 14:39:33;;;;;;;2.33;0.85;;;;;;;;;;5032979;28;20503;-53
2022/04/07 14:41:59;;;;;;;1.63;0.65;;;;;;;;;;5034931;28;20025;-53